sensor_id;sensor_type;location;lat;lon;timestamp;P1;durP1;ratioP1;P2;durP2;ratioP2
16699;SDS011;8466;52.286;21.124;2022-11-15T00:00:28;27.43;;;24.73;;
16699;SDS011;8466;52.286;21.124;2022-11-15T00:02:58;27.87;;;24.97;;
16699;SDS011;8466;52.286;21.124;2022-11-15T00:05:28;27.90;;;25.20;;
16699;SDS011;8466;52.286;21.124;2022-11-15T00:08:03;27.10;;;24.40;;
16699;SDS011;8466;52.286;21.124;2022-11-15T00:10:33;26.93;;;24.23;;
16699;SDS011;8466;52.286;21.124;2022-11-15T00:13:04;26.57;;;23.73;;
16699;SDS011;8466;52.286;21.124;2022-11-15T00:15:36;27.60;;;24.93;;
16699;SDS011;8466;52.286;21.124;2022-11-15T00:18:11;26.07;;;23.53;;
16699;SDS011;8466;52.286;21.124;2022-11-15T00:20:41;27.27;;;24.50;;
16699;SDS011;8466;52.286;21.124;2022-11-15T00:23:13;26.43;;;23.67;;
16699;SDS011;8466;52.286;21.124;2022-11-15T00:25:43;27.67;;;24.70;;
16699;SDS011;8466;52.286;21.124;2022-11-15T00:28:14;25.53;;;22.93;;
16699;SDS011;8466;52.286;21.124;2022-11-15T00:30:43;26.37;;;23.67;;
16699;SDS011;8466;52.286;21.124;2022-11-15T00:33:13;26.83;;;24.23;;
16699;SDS011;8466;52.286;21.124;2022-11-15T00:35:49;26.60;;;23.73;;
16699;SDS011;8466;52.286;21.124;2022-11-15T00:38:23;28.90;;;25.90;;
16699;SDS011;8466;52.286;21.124;2022-11-15T00:40:59;26.00;;;23.50;;
16699;SDS011;8466;52.286;21.124;2022-11-15T00:43:36;27.53;;;24.83;;
16699;SDS011;8466;52.286;21.124;2022-11-15T00:46:08;28.77;;;25.87;;
16699;SDS011;8466;52.286;21.124;2022-11-15T00:48:43;28.13;;;24.73;;
16699;SDS011;8466;52.286;21.124;2022-11-15T00:51:15;28.37;;;25.67;;
16699;SDS011;8466;52.286;21.124;2022-11-15T00:53:49;27.87;;;25.07;;
16699;SDS011;8466;52.286;21.124;2022-11-15T00:56:23;32.80;;;29.70;;
16699;SDS011;8466;52.286;21.124;2022-11-15T00:58:53;28.90;;;25.80;;
16699;SDS011;8466;52.286;21.124;2022-11-15T01:01:23;31.70;;;28.50;;
16699;SDS011;8466;52.286;21.124;2022-11-15T01:03:58;29.60;;;26.57;;
16699;SDS011;8466;52.286;21.124;2022-11-15T01:06:32;29.07;;;25.93;;
16699;SDS011;8466;52.286;21.124;2022-11-15T01:09:04;32.17;;;29.07;;
16699;SDS011;8466;52.286;21.124;2022-11-15T01:11:33;32.00;;;28.73;;
16699;SDS011;8466;52.286;21.124;2022-11-15T01:14:02;31.40;;;28.13;;
16699;SDS011;8466;52.286;21.124;2022-11-15T01:16:31;33.17;;;29.83;;
16699;SDS011;8466;52.286;21.124;2022-11-15T01:19:00;35.50;;;31.93;;
16699;SDS011;8466;52.286;21.124;2022-11-15T01:21:32;34.90;;;31.23;;
16699;SDS011;8466;52.286;21.124;2022-11-15T01:24:04;34.67;;;30.83;;
16699;SDS011;8466;52.286;21.124;2022-11-15T01:26:36;31.70;;;28.30;;
16699;SDS011;8466;52.286;21.124;2022-11-15T01:29:07;31.17;;;27.87;;
16699;SDS011;8466;52.286;21.124;2022-11-15T01:31:39;33.53;;;30.03;;
16699;SDS011;8466;52.286;21.124;2022-11-15T01:34:09;34.43;;;30.33;;
16699;SDS011;8466;52.286;21.124;2022-11-15T01:36:40;34.57;;;30.77;;
16699;SDS011;8466;52.286;21.124;2022-11-15T01:39:12;35.57;;;31.93;;
16699;SDS011;8466;52.286;21.124;2022-11-15T01:41:45;36.87;;;27.57;;
16699;SDS011;8466;52.286;21.124;2022-11-15T01:44:38;34.27;;;29.93;;
16699;SDS011;8466;52.286;21.124;2022-11-15T01:47:14;34.77;;;31.00;;
16699;SDS011;8466;52.286;21.124;2022-11-15T01:49:52;33.60;;;28.57;;
16699;SDS011;8466;52.286;21.124;2022-11-15T01:52:26;36.27;;;30.80;;
16699;SDS011;8466;52.286;21.124;2022-11-15T01:55:05;33.97;;;30.37;;
16699;SDS011;8466;52.286;21.124;2022-11-15T01:57:39;36.77;;;32.73;;
16699;SDS011;8466;52.286;21.124;2022-11-15T02:00:12;36.17;;;31.57;;
16699;SDS011;8466;52.286;21.124;2022-11-15T02:02:41;37.63;;;33.50;;
16699;SDS011;8466;52.286;21.124;2022-11-15T02:05:13;37.37;;;32.27;;
16699;SDS011;8466;52.286;21.124;2022-11-15T02:07:43;36.97;;;31.83;;
16699;SDS011;8466;52.286;21.124;2022-11-15T02:10:18;40.00;;;33.03;;
16699;SDS011;8466;52.286;21.124;2022-11-15T02:12:48;41.00;;;33.40;;
16699;SDS011;8466;52.286;21.124;2022-11-15T02:15:18;40.07;;;33.50;;
16699;SDS011;8466;52.286;21.124;2022-11-15T02:17:52;38.37;;;31.93;;
16699;SDS011;8466;52.286;21.124;2022-11-15T02:20:39;38.30;;;32.43;;
16699;SDS011;8466;52.286;21.124;2022-11-15T02:23:20;41.73;;;33.00;;
16699;SDS011;8466;52.286;21.124;2022-11-15T02:26:21;39.17;;;34.37;;
16699;SDS011;8466;52.286;21.124;2022-11-15T02:29:28;39.70;;;32.97;;
16699;SDS011;8466;52.286;21.124;2022-11-15T02:32:14;43.23;;;34.80;;
16699;SDS011;8466;52.286;21.124;2022-11-15T02:34:54;43.47;;;34.87;;
16699;SDS011;8466;52.286;21.124;2022-11-15T02:37:32;42.63;;;34.90;;
16699;SDS011;8466;52.286;21.124;2022-11-15T02:40:10;40.33;;;33.40;;
16699;SDS011;8466;52.286;21.124;2022-11-15T02:42:50;39.70;;;33.57;;
16699;SDS011;8466;52.286;21.124;2022-11-15T02:45:43;41.50;;;33.37;;
16699;SDS011;8466;52.286;21.124;2022-11-15T02:48:19;39.93;;;32.47;;
16699;SDS011;8466;52.286;21.124;2022-11-15T02:50:53;41.80;;;31.23;;
16699;SDS011;8466;52.286;21.124;2022-11-15T02:53:25;39.43;;;32.67;;
16699;SDS011;8466;52.286;21.124;2022-11-15T02:55:59;42.87;;;31.70;;
16699;SDS011;8466;52.286;21.124;2022-11-15T02:58:34;39.23;;;30.13;;
16699;SDS011;8466;52.286;21.124;2022-11-15T03:01:37;37.40;;;30.00;;
16699;SDS011;8466;52.286;21.124;2022-11-15T03:04:18;39.83;;;30.93;;
16699;SDS011;8466;52.286;21.124;2022-11-15T03:06:58;43.83;;;32.60;;
16699;SDS011;8466;52.286;21.124;2022-11-15T03:09:35;38.93;;;31.10;;
16699;SDS011;8466;52.286;21.124;2022-11-15T03:12:11;39.93;;;29.37;;
16699;SDS011;8466;52.286;21.124;2022-11-15T03:14:45;39.53;;;29.57;;
16699;SDS011;8466;52.286;21.124;2022-11-15T03:17:25;37.57;;;30.23;;
16699;SDS011;8466;52.286;21.124;2022-11-15T03:20:01;38.70;;;28.90;;
16699;SDS011;8466;52.286;21.124;2022-11-15T03:22:35;39.30;;;29.37;;
16699;SDS011;8466;52.286;21.124;2022-11-15T03:25:09;41.73;;;29.20;;
16699;SDS011;8466;52.286;21.124;2022-11-15T03:27:47;38.40;;;29.47;;
16699;SDS011;8466;52.286;21.124;2022-11-15T03:30:23;39.43;;;28.00;;
16699;SDS011;8466;52.286;21.124;2022-11-15T03:32:54;38.73;;;29.30;;
16699;SDS011;8466;52.286;21.124;2022-11-15T03:35:32;38.17;;;28.10;;
16699;SDS011;8466;52.286;21.124;2022-11-15T03:38:06;38.77;;;28.13;;
16699;SDS011;8466;52.286;21.124;2022-11-15T03:40:41;36.13;;;28.73;;
16699;SDS011;8466;52.286;21.124;2022-11-15T03:43:19;39.63;;;29.87;;
16699;SDS011;8466;52.286;21.124;2022-11-15T03:45:55;37.17;;;28.67;;
16699;SDS011;8466;52.286;21.124;2022-11-15T03:48:30;37.83;;;30.03;;
16699;SDS011;8466;52.286;21.124;2022-11-15T03:51:06;42.27;;;32.10;;
16699;SDS011;8466;52.286;21.124;2022-11-15T03:53:36;36.67;;;28.77;;
16699;SDS011;8466;52.286;21.124;2022-11-15T03:56:07;40.00;;;30.63;;
16699;SDS011;8466;52.286;21.124;2022-11-15T03:58:37;38.50;;;30.17;;
16699;SDS011;8466;52.286;21.124;2022-11-15T04:01:06;36.80;;;29.30;;
16699;SDS011;8466;52.286;21.124;2022-11-15T04:03:38;36.90;;;29.20;;
16699;SDS011;8466;52.286;21.124;2022-11-15T04:06:10;40.63;;;29.37;;
16699;SDS011;8466;52.286;21.124;2022-11-15T04:08:39;38.27;;;28.70;;
16699;SDS011;8466;52.286;21.124;2022-11-15T04:11:08;40.73;;;30.47;;
16699;SDS011;8466;52.286;21.124;2022-11-15T04:13:42;41.00;;;29.60;;
16699;SDS011;8466;52.286;21.124;2022-11-15T04:16:13;38.10;;;29.13;;
16699;SDS011;8466;52.286;21.124;2022-11-15T04:18:45;44.43;;;31.77;;
16699;SDS011;8466;52.286;21.124;2022-11-15T04:21:40;42.73;;;29.97;;
16699;SDS011;8466;52.286;21.124;2022-11-15T04:24:26;39.73;;;30.07;;
16699;SDS011;8466;52.286;21.124;2022-11-15T04:26:55;40.93;;;31.53;;
16699;SDS011;8466;52.286;21.124;2022-11-15T04:29:24;41.23;;;29.70;;
16699;SDS011;8466;52.286;21.124;2022-11-15T04:32:06;43.23;;;31.20;;
16699;SDS011;8466;52.286;21.124;2022-11-15T04:34:37;44.70;;;31.40;;
16699;SDS011;8466;52.286;21.124;2022-11-15T04:37:08;43.00;;;31.57;;
16699;SDS011;8466;52.286;21.124;2022-11-15T04:39:43;41.77;;;31.33;;
16699;SDS011;8466;52.286;21.124;2022-11-15T04:42:14;44.37;;;30.87;;
16699;SDS011;8466;52.286;21.124;2022-11-15T04:44:43;44.87;;;31.00;;
16699;SDS011;8466;52.286;21.124;2022-11-15T04:47:17;43.97;;;30.90;;
16699;SDS011;8466;52.286;21.124;2022-11-15T04:49:47;42.87;;;30.90;;
16699;SDS011;8466;52.286;21.124;2022-11-15T04:52:22;41.17;;;31.50;;
16699;SDS011;8466;52.286;21.124;2022-11-15T04:54:54;46.23;;;32.10;;
16699;SDS011;8466;52.286;21.124;2022-11-15T04:57:23;42.27;;;30.97;;
16699;SDS011;8466;52.286;21.124;2022-11-15T04:59:55;42.10;;;31.33;;
16699;SDS011;8466;52.286;21.124;2022-11-15T05:02:28;46.37;;;32.20;;
16699;SDS011;8466;52.286;21.124;2022-11-15T05:05:20;48.90;;;33.53;;
16699;SDS011;8466;52.286;21.124;2022-11-15T05:07:50;41.90;;;31.70;;
16699;SDS011;8466;52.286;21.124;2022-11-15T05:10:22;44.00;;;31.63;;
16699;SDS011;8466;52.286;21.124;2022-11-15T05:12:51;48.23;;;33.03;;
16699;SDS011;8466;52.286;21.124;2022-11-15T05:15:22;47.83;;;33.67;;
16699;SDS011;8466;52.286;21.124;2022-11-15T05:17:57;55.78;;;42.40;;
16699;SDS011;8466;52.286;21.124;2022-11-15T05:20:29;47.73;;;34.23;;
16699;SDS011;8466;52.286;21.124;2022-11-15T05:22:59;47.23;;;34.23;;
16699;SDS011;8466;52.286;21.124;2022-11-15T05:25:31;46.37;;;33.70;;
16699;SDS011;8466;52.286;21.124;2022-11-15T05:28:00;48.35;;;43.15;;
16699;SDS011;8466;52.286;21.124;2022-11-15T05:30:29;48.13;;;38.70;;
16699;SDS011;8466;52.286;21.124;2022-11-15T05:32:58;46.10;;;31.93;;
16699;SDS011;8466;52.286;21.124;2022-11-15T05:35:29;48.53;;;33.97;;
16699;SDS011;8466;52.286;21.124;2022-11-15T05:38:02;45.55;;;32.65;;
16699;SDS011;8466;52.286;21.124;2022-11-15T05:40:31;48.17;;;31.73;;
16699;SDS011;8466;52.286;21.124;2022-11-15T05:43:00;44.70;;;30.10;;
16699;SDS011;8466;52.286;21.124;2022-11-15T05:45:31;54.13;;;48.53;;
16699;SDS011;8466;52.286;21.124;2022-11-15T05:48:06;50.27;;;36.37;;
16699;SDS011;8466;52.286;21.124;2022-11-15T05:50:38;46.23;;;31.70;;
16699;SDS011;8466;52.286;21.124;2022-11-15T05:53:16;50.73;;;32.27;;
16699;SDS011;8466;52.286;21.124;2022-11-15T05:55:50;48.20;;;42.38;;
16699;SDS011;8466;52.286;21.124;2022-11-15T05:58:20;47.37;;;34.23;;
16699;SDS011;8466;52.286;21.124;2022-11-15T06:00:50;51.40;;;46.10;;
16699;SDS011;8466;52.286;21.124;2022-11-15T06:03:19;45.83;;;36.83;;
16699;SDS011;8466;52.286;21.124;2022-11-15T06:05:48;46.93;;;33.37;;
16699;SDS011;8466;52.286;21.124;2022-11-15T06:08:20;47.77;;;32.03;;
16699;SDS011;8466;52.286;21.124;2022-11-15T06:10:50;46.57;;;30.90;;
16699;SDS011;8466;52.286;21.124;2022-11-15T06:13:21;45.80;;;32.03;;
16699;SDS011;8466;52.286;21.124;2022-11-15T06:15:50;46.50;;;31.83;;
16699;SDS011;8466;52.286;21.124;2022-11-15T06:18:24;53.63;;;33.50;;
16699;SDS011;8466;52.286;21.124;2022-11-15T06:20:58;46.50;;;31.77;;
16699;SDS011;8466;52.286;21.124;2022-11-15T06:23:34;47.53;;;31.30;;
16699;SDS011;8466;52.286;21.124;2022-11-15T06:26:04;46.40;;;30.83;;
16699;SDS011;8466;52.286;21.124;2022-11-15T06:28:34;43.60;;;29.63;;
16699;SDS011;8466;52.286;21.124;2022-11-15T06:31:03;46.73;;;31.13;;
16699;SDS011;8466;52.286;21.124;2022-11-15T06:33:34;51.40;;;31.50;;
16699;SDS011;8466;52.286;21.124;2022-11-15T06:36:02;47.70;;;30.83;;
16699;SDS011;8466;52.286;21.124;2022-11-15T06:38:41;45.67;;;29.57;;
16699;SDS011;8466;52.286;21.124;2022-11-15T06:41:11;50.27;;;31.10;;
16699;SDS011;8466;52.286;21.124;2022-11-15T06:43:45;46.93;;;31.20;;
16699;SDS011;8466;52.286;21.124;2022-11-15T06:46:19;45.87;;;29.07;;
16699;SDS011;8466;52.286;21.124;2022-11-15T06:48:50;44.13;;;29.67;;
16699;SDS011;8466;52.286;21.124;2022-11-15T06:51:21;41.73;;;27.93;;
16699;SDS011;8466;52.286;21.124;2022-11-15T06:53:53;44.22;;;36.42;;
16699;SDS011;8466;52.286;21.124;2022-11-15T06:56:25;43.17;;;30.40;;
16699;SDS011;8466;52.286;21.124;2022-11-15T06:58:56;42.63;;;28.60;;
16699;SDS011;8466;52.286;21.124;2022-11-15T07:01:29;40.63;;;28.33;;
16699;SDS011;8466;52.286;21.124;2022-11-15T07:04:01;41.23;;;29.93;;
16699;SDS011;8466;52.286;21.124;2022-11-15T07:06:30;43.97;;;30.90;;
16699;SDS011;8466;52.286;21.124;2022-11-15T07:09:03;43.67;;;31.97;;
16699;SDS011;8466;52.286;21.124;2022-11-15T07:11:36;49.40;;;32.03;;
16699;SDS011;8466;52.286;21.124;2022-11-15T07:14:08;46.17;;;31.37;;
16699;SDS011;8466;52.286;21.124;2022-11-15T07:16:37;45.60;;;31.83;;
16699;SDS011;8466;52.286;21.124;2022-11-15T07:19:05;46.60;;;31.00;;
16699;SDS011;8466;52.286;21.124;2022-11-15T07:21:36;45.33;;;30.37;;
16699;SDS011;8466;52.286;21.124;2022-11-15T07:24:06;45.53;;;31.17;;
16699;SDS011;8466;52.286;21.124;2022-11-15T07:26:35;45.00;;;31.50;;
16699;SDS011;8466;52.286;21.124;2022-11-15T07:29:04;44.50;;;30.77;;
16699;SDS011;8466;52.286;21.124;2022-11-15T07:31:32;44.53;;;30.10;;
16699;SDS011;8466;52.286;21.124;2022-11-15T07:34:01;46.20;;;30.87;;
16699;SDS011;8466;52.286;21.124;2022-11-15T07:36:29;49.20;;;29.53;;
16699;SDS011;8466;52.286;21.124;2022-11-15T07:38:58;44.80;;;30.07;;
16699;SDS011;8466;52.286;21.124;2022-11-15T07:41:28;42.60;;;30.53;;
16699;SDS011;8466;52.286;21.124;2022-11-15T07:43:57;45.33;;;30.07;;
16699;SDS011;8466;52.286;21.124;2022-11-15T07:46:26;37.07;;;28.07;;
16699;SDS011;8466;52.286;21.124;2022-11-15T07:48:55;44.00;;;29.77;;
16699;SDS011;8466;52.286;21.124;2022-11-15T07:51:24;46.03;;;30.63;;
16699;SDS011;8466;52.286;21.124;2022-11-15T07:53:53;46.63;;;33.40;;
16699;SDS011;8466;52.286;21.124;2022-11-15T07:56:21;40.90;;;30.20;;
16699;SDS011;8466;52.286;21.124;2022-11-15T07:58:51;51.60;;;36.93;;
16699;SDS011;8466;52.286;21.124;2022-11-15T08:01:20;50.93;;;38.93;;
16699;SDS011;8466;52.286;21.124;2022-11-15T08:03:50;49.33;;;35.43;;
16699;SDS011;8466;52.286;21.124;2022-11-15T08:06:19;41.93;;;31.00;;
16699;SDS011;8466;52.286;21.124;2022-11-15T08:08:47;41.47;;;29.60;;
16699;SDS011;8466;52.286;21.124;2022-11-15T08:11:16;62.17;;;56.95;;
16699;SDS011;8466;52.286;21.124;2022-11-15T08:13:45;38.47;;;30.10;;
16699;SDS011;8466;52.286;21.124;2022-11-15T08:16:15;35.97;;;27.80;;
16699;SDS011;8466;52.286;21.124;2022-11-15T08:18:44;36.87;;;29.70;;
16699;SDS011;8466;52.286;21.124;2022-11-15T08:21:13;37.10;;;27.47;;
16699;SDS011;8466;52.286;21.124;2022-11-15T08:23:46;35.70;;;26.70;;
16699;SDS011;8466;52.286;21.124;2022-11-15T08:26:15;36.93;;;27.40;;
16699;SDS011;8466;52.286;21.124;2022-11-15T08:28:43;36.47;;;27.73;;
16699;SDS011;8466;52.286;21.124;2022-11-15T08:31:15;35.73;;;27.83;;
16699;SDS011;8466;52.286;21.124;2022-11-15T08:33:46;36.70;;;30.00;;
16699;SDS011;8466;52.286;21.124;2022-11-15T08:36:15;38.20;;;29.60;;
16699;SDS011;8466;52.286;21.124;2022-11-15T08:38:45;38.23;;;28.73;;
16699;SDS011;8466;52.286;21.124;2022-11-15T08:41:19;35.00;;;26.53;;
16699;SDS011;8466;52.286;21.124;2022-11-15T08:43:52;35.90;;;26.80;;
16699;SDS011;8466;52.286;21.124;2022-11-15T08:46:24;30.13;;;24.80;;
16699;SDS011;8466;52.286;21.124;2022-11-15T08:48:52;34.13;;;27.80;;
16699;SDS011;8466;52.286;21.124;2022-11-15T08:51:21;34.83;;;28.27;;
16699;SDS011;8466;52.286;21.124;2022-11-15T08:53:51;31.97;;;26.93;;
16699;SDS011;8466;52.286;21.124;2022-11-15T08:56:19;33.27;;;26.87;;
16699;SDS011;8466;52.286;21.124;2022-11-15T08:58:48;32.90;;;26.80;;
16699;SDS011;8466;52.286;21.124;2022-11-15T09:01:18;31.57;;;24.60;;
16699;SDS011;8466;52.286;21.124;2022-11-15T09:03:49;32.43;;;24.77;;
16699;SDS011;8466;52.286;21.124;2022-11-15T09:06:19;38.00;;;25.63;;
16699;SDS011;8466;52.286;21.124;2022-11-15T09:08:48;35.60;;;26.53;;
16699;SDS011;8466;52.286;21.124;2022-11-15T09:11:17;33.13;;;24.97;;
16699;SDS011;8466;52.286;21.124;2022-11-15T09:13:50;29.23;;;24.27;;
16699;SDS011;8466;52.286;21.124;2022-11-15T09:16:20;29.30;;;24.10;;
16699;SDS011;8466;52.286;21.124;2022-11-15T09:18:53;30.40;;;22.87;;
16699;SDS011;8466;52.286;21.124;2022-11-15T09:21:24;30.47;;;24.07;;
16699;SDS011;8466;52.286;21.124;2022-11-15T09:23:55;31.37;;;24.77;;
16699;SDS011;8466;52.286;21.124;2022-11-15T09:26:25;33.37;;;25.43;;
16699;SDS011;8466;52.286;21.124;2022-11-15T09:28:56;34.83;;;25.47;;
16699;SDS011;8466;52.286;21.124;2022-11-15T09:31:29;34.43;;;27.10;;
16699;SDS011;8466;52.286;21.124;2022-11-15T09:33:59;30.90;;;25.33;;
16699;SDS011;8466;52.286;21.124;2022-11-15T09:36:28;36.80;;;25.40;;
16699;SDS011;8466;52.286;21.124;2022-11-15T09:38:57;33.93;;;25.33;;
16699;SDS011;8466;52.286;21.124;2022-11-15T09:41:36;33.20;;;25.70;;
16699;SDS011;8466;52.286;21.124;2022-11-15T09:44:22;33.90;;;25.10;;
16699;SDS011;8466;52.286;21.124;2022-11-15T09:47:07;34.80;;;24.87;;
16699;SDS011;8466;52.286;21.124;2022-11-15T09:49:55;33.23;;;24.60;;
16699;SDS011;8466;52.286;21.124;2022-11-15T09:52:27;35.00;;;24.43;;
16699;SDS011;8466;52.286;21.124;2022-11-15T09:54:58;29.07;;;22.17;;
16699;SDS011;8466;52.286;21.124;2022-11-15T09:57:36;30.40;;;24.10;;
16699;SDS011;8466;52.286;21.124;2022-11-15T10:00:16;30.60;;;23.37;;
16699;SDS011;8466;52.286;21.124;2022-11-15T10:03:11;33.23;;;24.53;;
16699;SDS011;8466;52.286;21.124;2022-11-15T10:05:47;33.43;;;27.03;;
16699;SDS011;8466;52.286;21.124;2022-11-15T10:08:40;33.47;;;27.60;;
16699;SDS011;8466;52.286;21.124;2022-11-15T10:11:26;34.80;;;27.43;;
16699;SDS011;8466;52.286;21.124;2022-11-15T10:14:08;34.97;;;25.97;;
16699;SDS011;8466;52.286;21.124;2022-11-15T10:19:50;38.37;;;29.60;;
16699;SDS011;8466;52.286;21.124;2022-11-15T10:22:35;36.13;;;29.30;;
16699;SDS011;8466;52.286;21.124;2022-11-15T10:25:16;41.17;;;34.23;;
16699;SDS011;8466;52.286;21.124;2022-11-15T10:27:52;35.23;;;28.93;;
16699;SDS011;8466;52.286;21.124;2022-11-15T10:30:30;33.50;;;28.90;;
16699;SDS011;8466;52.286;21.124;2022-11-15T10:33:10;46.37;;;36.70;;
16699;SDS011;8466;52.286;21.124;2022-11-15T10:35:45;47.30;;;39.20;;
16699;SDS011;8466;52.286;21.124;2022-11-15T10:38:18;30.80;;;25.27;;
16699;SDS011;8466;52.286;21.124;2022-11-15T10:40:47;33.27;;;26.23;;
16699;SDS011;8466;52.286;21.124;2022-11-15T10:43:16;41.57;;;32.10;;
16699;SDS011;8466;52.286;21.124;2022-11-15T10:45:46;87.90;;;67.40;;
16699;SDS011;8466;52.286;21.124;2022-11-15T10:48:20;35.80;;;27.40;;
16699;SDS011;8466;52.286;21.124;2022-11-15T10:50:51;34.50;;;27.73;;
16699;SDS011;8466;52.286;21.124;2022-11-15T10:53:26;29.87;;;25.03;;
16699;SDS011;8466;52.286;21.124;2022-11-15T10:56:00;35.53;;;27.70;;
16699;SDS011;8466;52.286;21.124;2022-11-15T10:58:35;34.17;;;26.37;;
16699;SDS011;8466;52.286;21.124;2022-11-15T11:01:09;33.90;;;27.57;;
16699;SDS011;8466;52.286;21.124;2022-11-15T11:03:41;37.60;;;27.97;;
16699;SDS011;8466;52.286;21.124;2022-11-15T11:06:12;33.97;;;27.40;;
16699;SDS011;8466;52.286;21.124;2022-11-15T11:08:54;31.50;;;26.07;;
16699;SDS011;8466;52.286;21.124;2022-11-15T11:11:25;34.00;;;26.33;;
16699;SDS011;8466;52.286;21.124;2022-11-15T11:14:12;38.80;;;28.10;;
16699;SDS011;8466;52.286;21.124;2022-11-15T11:16:46;36.60;;;27.33;;
16699;SDS011;8466;52.286;21.124;2022-11-15T11:19:27;33.57;;;25.63;;
16699;SDS011;8466;52.286;21.124;2022-11-15T11:22:17;36.20;;;27.23;;
16699;SDS011;8466;52.286;21.124;2022-11-15T11:24:56;44.20;;;32.03;;
16699;SDS011;8466;52.286;21.124;2022-11-15T11:27:37;68.07;;;48.30;;
16699;SDS011;8466;52.286;21.124;2022-11-15T11:30:14;52.37;;;40.57;;
16699;SDS011;8466;52.286;21.124;2022-11-15T11:32:49;66.77;;;49.80;;
16699;SDS011;8466;52.286;21.124;2022-11-15T11:35:32;37.80;;;30.93;;
16699;SDS011;8466;52.286;21.124;2022-11-15T11:38:11;36.10;;;28.30;;
16699;SDS011;8466;52.286;21.124;2022-11-15T11:40:54;59.03;;;45.10;;
16699;SDS011;8466;52.286;21.124;2022-11-15T11:43:34;52.23;;;39.37;;
16699;SDS011;8466;52.286;21.124;2022-11-15T11:49:15;46.20;;;42.00;;
16699;SDS011;8466;52.286;21.124;2022-11-15T11:51:49;38.40;;;33.87;;
16699;SDS011;8466;52.286;21.124;2022-11-15T11:54:22;34.10;;;30.43;;
16699;SDS011;8466;52.286;21.124;2022-11-15T11:57:01;35.73;;;29.73;;
16699;SDS011;8466;52.286;21.124;2022-11-15T11:59:36;33.80;;;28.53;;
16699;SDS011;8466;52.286;21.124;2022-11-15T12:02:11;34.43;;;28.17;;
16699;SDS011;8466;52.286;21.124;2022-11-15T12:04:45;36.87;;;29.30;;
16699;SDS011;8466;52.286;21.124;2022-11-15T12:07:20;35.70;;;28.27;;
16699;SDS011;8466;52.286;21.124;2022-11-15T12:09:53;34.20;;;27.57;;
16699;SDS011;8466;52.286;21.124;2022-11-15T12:12:30;34.20;;;28.20;;
16699;SDS011;8466;52.286;21.124;2022-11-15T12:15:10;35.80;;;29.90;;
16699;SDS011;8466;52.286;21.124;2022-11-15T12:17:43;36.90;;;29.30;;
16699;SDS011;8466;52.286;21.124;2022-11-15T12:20:14;36.93;;;30.23;;
16699;SDS011;8466;52.286;21.124;2022-11-15T12:22:51;33.37;;;28.27;;
16699;SDS011;8466;52.286;21.124;2022-11-15T12:25:23;35.80;;;30.70;;
16699;SDS011;8466;52.286;21.124;2022-11-15T12:27:59;39.10;;;31.53;;
16699;SDS011;8466;52.286;21.124;2022-11-15T12:30:40;33.90;;;27.97;;
16699;SDS011;8466;52.286;21.124;2022-11-15T12:36:05;35.40;;;29.40;;
16699;SDS011;8466;52.286;21.124;2022-11-15T12:41:27;35.30;;;29.23;;
16699;SDS011;8466;52.286;21.124;2022-11-15T12:43:58;37.50;;;29.53;;
16699;SDS011;8466;52.286;21.124;2022-11-15T12:49:43;36.73;;;29.40;;
16699;SDS011;8466;52.286;21.124;2022-11-15T12:52:15;39.37;;;31.10;;
16699;SDS011;8466;52.286;21.124;2022-11-15T12:54:55;43.07;;;33.40;;
16699;SDS011;8466;52.286;21.124;2022-11-15T13:03:19;39.20;;;31.30;;
16699;SDS011;8466;52.286;21.124;2022-11-15T13:06:05;45.77;;;34.13;;
16699;SDS011;8466;52.286;21.124;2022-11-15T13:08:40;42.47;;;32.77;;
16699;SDS011;8466;52.286;21.124;2022-11-15T13:17:30;48.57;;;34.60;;
16699;SDS011;8466;52.286;21.124;2022-11-15T13:20:17;104.80;;;44.33;;
16699;SDS011;8466;52.286;21.124;2022-11-15T13:23:07;48.23;;;36.50;;
16699;SDS011;8466;52.286;21.124;2022-11-15T13:25:52;49.63;;;36.87;;
16699;SDS011;8466;52.286;21.124;2022-11-15T13:28:29;52.67;;;35.83;;
16699;SDS011;8466;52.286;21.124;2022-11-15T13:31:05;46.37;;;34.17;;
16699;SDS011;8466;52.286;21.124;2022-11-15T13:33:49;48.30;;;34.80;;
16699;SDS011;8466;52.286;21.124;2022-11-15T13:36:21;50.50;;;35.80;;
16699;SDS011;8466;52.286;21.124;2022-11-15T13:38:55;58.77;;;38.17;;
16699;SDS011;8466;52.286;21.124;2022-11-15T13:41:25;57.17;;;37.83;;
16699;SDS011;8466;52.286;21.124;2022-11-15T13:43:55;50.93;;;36.77;;
16699;SDS011;8466;52.286;21.124;2022-11-15T13:46:25;56.73;;;42.07;;
16699;SDS011;8466;52.286;21.124;2022-11-15T13:48:57;50.97;;;36.33;;
16699;SDS011;8466;52.286;21.124;2022-11-15T13:51:30;53.03;;;37.73;;
16699;SDS011;8466;52.286;21.124;2022-11-15T13:54:07;51.60;;;37.53;;
16699;SDS011;8466;52.286;21.124;2022-11-15T13:56:42;51.53;;;36.03;;
16699;SDS011;8466;52.286;21.124;2022-11-15T13:59:19;47.90;;;35.57;;
16699;SDS011;8466;52.286;21.124;2022-11-15T14:01:53;51.77;;;37.40;;
16699;SDS011;8466;52.286;21.124;2022-11-15T14:04:26;49.67;;;37.07;;
16699;SDS011;8466;52.286;21.124;2022-11-15T14:07:00;45.57;;;35.07;;
16699;SDS011;8466;52.286;21.124;2022-11-15T14:09:34;50.57;;;36.80;;
16699;SDS011;8466;52.286;21.124;2022-11-15T14:12:23;50.13;;;35.23;;
16699;SDS011;8466;52.286;21.124;2022-11-15T14:14:57;46.57;;;34.43;;
16699;SDS011;8466;52.286;21.124;2022-11-15T14:17:33;45.83;;;35.97;;
16699;SDS011;8466;52.286;21.124;2022-11-15T14:23:03;45.60;;;36.27;;
16699;SDS011;8466;52.286;21.124;2022-11-15T14:25:34;52.43;;;37.07;;
16699;SDS011;8466;52.286;21.124;2022-11-15T14:28:09;49.40;;;35.03;;
16699;SDS011;8466;52.286;21.124;2022-11-15T14:30:44;40.60;;;31.07;;
16699;SDS011;8466;52.286;21.124;2022-11-15T14:33:21;46.50;;;35.23;;
16699;SDS011;8466;52.286;21.124;2022-11-15T14:35:52;44.47;;;35.00;;
16699;SDS011;8466;52.286;21.124;2022-11-15T14:38:23;47.97;;;35.43;;
16699;SDS011;8466;52.286;21.124;2022-11-15T14:40:52;66.30;;;41.67;;
16699;SDS011;8466;52.286;21.124;2022-11-15T14:43:23;49.27;;;36.93;;
16699;SDS011;8466;52.286;21.124;2022-11-15T14:45:52;53.40;;;36.00;;
16699;SDS011;8466;52.286;21.124;2022-11-15T14:48:21;45.20;;;37.57;;
16699;SDS011;8466;52.286;21.124;2022-11-15T14:50:50;51.03;;;36.83;;
16699;SDS011;8466;52.286;21.124;2022-11-15T14:53:18;49.57;;;38.23;;
16699;SDS011;8466;52.286;21.124;2022-11-15T14:55:50;47.73;;;36.83;;
16699;SDS011;8466;52.286;21.124;2022-11-15T14:58:18;48.60;;;36.43;;
16699;SDS011;8466;52.286;21.124;2022-11-15T15:00:47;49.33;;;37.50;;
16699;SDS011;8466;52.286;21.124;2022-11-15T15:03:16;48.17;;;37.10;;
16699;SDS011;8466;52.286;21.124;2022-11-15T15:05:45;47.37;;;36.47;;
16699;SDS011;8466;52.286;21.124;2022-11-15T15:08:13;48.53;;;37.20;;
16699;SDS011;8466;52.286;21.124;2022-11-15T15:10:43;47.03;;;35.30;;
16699;SDS011;8466;52.286;21.124;2022-11-15T15:13:17;45.97;;;34.43;;
16699;SDS011;8466;52.286;21.124;2022-11-15T15:15:48;42.17;;;34.67;;
16699;SDS011;8466;52.286;21.124;2022-11-15T15:18:18;45.27;;;35.33;;
16699;SDS011;8466;52.286;21.124;2022-11-15T15:20:49;48.37;;;36.60;;
16699;SDS011;8466;52.286;21.124;2022-11-15T15:23:23;46.83;;;36.27;;
16699;SDS011;8466;52.286;21.124;2022-11-15T15:25:55;52.37;;;37.87;;
16699;SDS011;8466;52.286;21.124;2022-11-15T15:28:26;51.80;;;38.60;;